This is the latest recevied weather packets stored in our database for station/object GAPWX. If no packets are shown the sender has not sent any weather packets the latest 10 day(s).
| Time | Temp. | Humidity | Pressure | Rain* | Wind** | Luminosity | Snow |
|---|---|---|---|---|---|---|---|
| 1777692331 | 12.78° C | 49% | 1016.1 hPa | 0 mm | - | - | - |
| 1777692030 | 12.78° C | 48% | 1016 hPa | 0 mm | - | - | - |
| 1777691728 | 12.78° C | 48% | 1016 hPa | 0 mm | - | - | - |
| 1777689921 | 14.44° C | 45% | 1015.8 hPa | 0 mm | - | - | - |
| 1777688718 | 15° C | 43% | 1015.9 hPa | 0 mm | - | - | - |
| 1777677866 | 18.89° C | 36% | 1015.9 hPa | 0 mm | - | - | - |
| 1777672744 | 18.89° C | 28% | 1016.4 hPa | 0 mm | - | - | - |
| 1777669733 | 18.33° C | 27% | 1016.6 hPa | 0 mm | - | - | - |
| 1777669127 | 18.33° C | 28% | 1016.7 hPa | 0 mm | - | - | - |
| 1777668825 | 18.33° C | 28% | 1016.8 hPa | 0 mm | - | - | - |
| 1777666414 | 17.22° C | 28% | 1017.1 hPa | 0 mm | - | - | - |
| 1777665209 | 17.22° C | 28% | 1017.3 hPa | 0 mm | - | - | - |
| 1777664908 | 17.22° C | 28% | 1017.4 hPa | 0 mm | - | - | - |
| 1777664619 | 17.22° C | 29% | 1017.4 hPa | 0 mm | - | - | - |
| 1777662198 | 17.22° C | 31% | 1017.7 hPa | 0 mm | - | - | - |
| 1777660692 | 16.67° C | 31% | 1017.9 hPa | 0 mm | - | - | - |
| 1777660089 | 16.67° C | 31% | 1017.9 hPa | 0 mm | - | - | - |
| 1777658906 | 15.56° C | 31% | 1018 hPa | 0 mm | - | - | - |
| 1777657979 | 15.56° C | 32% | 1018.1 hPa | 0 mm | - | - | - |
| 1777657682 | 15.56° C | 32% | 1018 hPa | 0 mm | - | - | - |
| 1777657375 | 15.56° C | 32% | 1018 hPa | 0 mm | - | - | - |
| 1777657074 | 15.56° C | 32% | 1018 hPa | 0 mm | - | - | - |
| 1777656771 | 15.56° C | 31% | 1018 hPa | 0 mm | - | - | - |
| 1777655566 | 15° C | 33% | 1018 hPa | 0 mm | - | - | - |
| 1777653155 | 13.89° C | 37% | 1017.9 hPa | 0 mm | - | - | - |
* Rain since midnight (hover to see other rain measurements)
** Current wind speed in m/s (hover to see current wind gust speed)